Time;durP1;ratioP1;P1;durP2;ratioP2;P2;SDS_P1;SDS_P2;PMS_P1;PMS_P2;Temp;Humidity;BMP_temperature;BMP_pressure;BME280_temperature;BME280_humidity;BME280_pressure;Samples;Min_cycle;Max_cycle;Signal;HPM_P1;HPM_P2
2022/07/01 00:00:50;;;;;;;0.63;0.63;;;15.50;99.90;;;;;;5019277;28;20269;-83
2022/07/01 00:03:16;;;;;;;0.52;0.52;;;15.50;99.90;;;;;;5019718;28;20474;-82
2022/07/01 00:05:42;;;;;;;1.40;1.00;;;15.50;99.90;;;;;;5019932;28;20285;-83
2022/07/01 00:08:07;;;;;;;5.32;0.80;;;15.40;99.90;;;;;;5018102;28;20033;-83
2022/07/01 00:10:35;;;;;;;0.80;0.80;;;15.40;99.90;;;;;;5019286;28;20848;-83
2022/07/01 00:13:00;;;;;;;0.50;0.50;;;15.40;99.90;;;;;;5006460;28;20038;-84
2022/07/01 00:15:26;;;;;;;3.75;0.90;;;15.40;99.90;;;;;;4999262;28;20100;-83
2022/07/01 00:17:51;;;;;;;1.50;0.82;;;15.40;99.90;;;;;;5014154;28;20495;-83
2022/07/01 00:20:18;;;;;;;1.13;1.02;;;15.40;99.90;;;;;;5019725;28;20045;-83
2022/07/01 00:22:43;;;;;;;1.27;0.75;;;15.30;99.90;;;;;;5019450;28;20111;-79
2022/07/01 00:25:09;;;;;;;1.25;0.85;;;15.40;99.90;;;;;;5019892;28;20271;-83
2022/07/01 00:27:42;;;;;;;1.00;0.80;;;15.40;99.90;;;;;;5019554;28;20345;-83
2022/07/01 00:30:09;;;;;;;2.72;1.05;;;15.30;99.90;;;;;;5018697;28;20047;-84
2022/07/01 00:32:35;;;;;;;2.05;0.60;;;15.30;99.90;;;;;;5018289;28;20045;-83
2022/07/01 00:35:01;;;;;;;1.15;1.13;;;15.40;99.90;;;;;;5017685;28;20160;-84
2022/07/01 00:37:27;;;;;;;1.15;1.00;;;15.20;99.90;;;;;;5018009;28;20480;-84
2022/07/01 00:39:52;;;;;;;1.38;1.10;;;15.30;99.90;;;;;;5019640;28;20365;-84
2022/07/01 00:42:18;;;;;;;2.00;1.10;;;15.30;99.90;;;;;;5018860;28;20488;-83
2022/07/01 00:44:43;;;;;;;0.93;0.93;;;15.20;99.90;;;;;;5017948;28;20207;-79
2022/07/01 00:47:11;;;;;;;1.15;1.15;;;15.30;99.90;;;;;;5019974;28;20603;-83
2022/07/01 00:49:38;;;;;;;2.70;1.30;;;15.20;99.90;;;;;;5019306;28;20045;-84
2022/07/01 00:52:05;;;;;;;2.53;1.02;;;15.30;99.90;;;;;;5017403;28;20076;-83
2022/07/01 00:54:34;;;;;;;1.00;0.82;;;15.30;99.90;;;;;;5018014;28;20037;-83
2022/07/01 00:57:04;;;;;;;1.75;1.05;;;15.20;99.90;;;;;;5018522;28;20037;-84
2022/07/01 00:59:31;;;;;;;1.25;0.85;;;15.30;99.90;;;;;;5018480;28;20115;-84
2022/07/01 01:01:57;;;;;;;0.80;0.80;;;15.20;99.90;;;;;;5018789;28;20194;-83
2022/07/01 01:04:23;;;;;;;1.30;1.23;;;15.30;99.90;;;;;;5017892;28;20467;-83
2022/07/01 01:06:49;;;;;;;0.60;0.60;;;15.30;99.90;;;;;;5017572;28;20045;-84
2022/07/01 01:09:15;;;;;;;2.00;0.82;;;15.30;99.90;;;;;;5020272;28;20091;-84
2022/07/01 01:11:40;;;;;;;1.00;1.00;;;15.30;99.90;;;;;;5030940;22;20053;-85
2022/07/01 01:14:06;;;;;;;1.08;1.00;;;15.30;99.90;;;;;;5024249;28;20543;-84
2022/07/01 01:16:33;;;;;;;3.28;0.75;;;15.30;99.90;;;;;;5022547;28;20064;-84
2022/07/01 01:18:59;;;;;;;0.85;0.85;;;15.40;99.90;;;;;;5034333;28;20056;-84
2022/07/01 01:21:25;;;;;;;2.28;2.08;;;15.30;99.90;;;;;;5025612;28;20034;-83
2022/07/01 01:23:50;;;;;;;2.22;1.45;;;15.30;99.90;;;;;;5024008;28;20045;-83
2022/07/01 01:26:21;;;;;;;3.78;1.63;;;15.30;99.90;;;;;;5028901;28;20087;-84
2022/07/01 01:28:48;;;;;;;1.65;1.50;;;15.30;99.90;;;;;;5043014;28;20037;-84
2022/07/01 01:31:14;;;;;;;3.53;2.00;;;15.30;99.90;;;;;;5039295;28;20462;-84
2022/07/01 01:33:40;;;;;;;1.70;1.58;;;15.30;99.90;;;;;;5024597;28;20045;-83
2022/07/01 01:36:06;;;;;;;2.28;2.08;;;15.30;99.90;;;;;;5027316;28;20044;-83
2022/07/01 01:38:34;;;;;;;4.45;2.72;;;15.30;99.90;;;;;;5026054;28;20491;-83
2022/07/01 01:41:01;;;;;;;3.83;2.78;;;15.30;99.90;;;;;;5040688;28;20033;-83
2022/07/01 01:43:27;;;;;;;2.67;2.47;;;15.30;99.90;;;;;;5022666;28;20045;-84
2022/07/01 01:45:53;;;;;;;4.88;2.97;;;15.30;99.90;;;;;;5026869;28;20103;-84
2022/07/01 01:48:19;;;;;;;4.60;2.80;;;15.30;99.90;;;;;;5024680;28;20462;-83
2022/07/01 01:50:44;;;;;;;2.70;2.50;;;15.30;99.90;;;;;;5038287;28;20072;-83
2022/07/01 01:53:10;;;;;;;2.92;2.63;;;15.20;99.90;;;;;;5033277;28;20079;-83
2022/07/01 01:55:35;;;;;;;3.10;2.80;;;15.30;99.90;;;;;;5042236;28;20126;-83
2022/07/01 01:58:01;;;;;;;1.80;1.65;;;15.20;99.90;;;;;;5040709;28;20044;-84
2022/07/01 02:00:26;;;;;;;2.25;2.10;;;15.30;99.90;;;;;;5025465;28;20454;-84
2022/07/01 02:02:52;;;;;;;2.72;2.47;;;15.20;99.90;;;;;;5023010;28;20043;-83
2022/07/01 02:05:18;;;;;;;2.33;2.20;;;15.30;99.90;;;;;;5023043;28;20044;-83
2022/07/01 02:07:44;;;;;;;3.20;2.67;;;15.30;99.90;;;;;;5034359;28;20053;-84
2022/07/01 02:10:10;;;;;;;2.50;2.15;;;15.30;99.90;;;;;;5024498;28;20407;-83
2022/07/01 02:12:35;;;;;;;2.65;2.42;;;15.30;99.90;;;;;;5055205;28;20484;-83
2022/07/01 02:15:01;;;;;;;2.97;2.67;;;15.30;99.90;;;;;;5021036;28;20125;-83
2022/07/01 02:17:27;;;;;;;3.38;2.17;;;15.30;99.90;;;;;;5022714;28;20041;-83
2022/07/01 02:19:53;;;;;;;3.60;2.42;;;15.30;99.90;;;;;;5033882;28;20123;-85
2022/07/01 02:22:18;;;;;;;2.88;2.47;;;15.30;99.90;;;;;;5022448;28;20132;-83
2022/07/01 02:24:44;;;;;;;2.60;2.33;;;15.30;99.90;;;;;;5022525;28;20442;-83
2022/07/01 02:27:10;;;;;;;2.35;2.15;;;15.30;99.90;;;;;;5030560;28;20069;-83
2022/07/01 02:29:37;;;;;;;2.80;2.60;;;15.30;99.90;;;;;;5025751;28;20113;-83
2022/07/01 02:32:04;;;;;;;2.17;2.08;;;15.30;99.90;;;;;;5022312;28;20629;-84
2022/07/01 02:34:29;;;;;;;2.13;1.95;;;15.20;99.90;;;;;;5036994;28;20041;-83
2022/07/01 02:36:55;;;;;;;1.77;1.58;;;15.20;99.90;;;;;;5029674;28;20041;-84
2022/07/01 02:39:22;;;;;;;2.50;2.25;;;15.20;99.90;;;;;;5032518;28;20049;-84
2022/07/01 02:44:34;;;;;;;1.80;1.70;;;15.10;99.90;;;;;;5025760;28;20072;-83
2022/07/01 02:46:59;;;;;;;2.47;2.28;;;15.10;99.90;;;;;;5028620;28;20045;-83
2022/07/01 02:49:25;;;;;;;2.70;2.50;;;15.10;99.90;;;;;;5032133;28;20041;-84
2022/07/01 02:51:51;;;;;;;2.00;1.88;;;15.10;99.90;;;;;;5024800;28;20068;-83
2022/07/01 02:54:16;;;;;;;2.10;1.90;;;15.10;99.90;;;;;;5022701;28;20059;-84
2022/07/01 02:56:42;;;;;;;4.68;2.95;;;15.10;99.90;;;;;;5023844;28;20049;-84
2022/07/01 02:59:07;;;;;;;3.80;2.55;;;15.10;99.90;;;;;;5030662;28;20068;-84
2022/07/01 03:01:33;;;;;;;4.25;3.45;;;15.00;99.90;;;;;;5021140;28;20435;-84
2022/07/01 03:03:58;;;;;;;3.65;3.33;;;15.00;99.90;;;;;;5021707;28;20041;-84
2022/07/01 03:06:24;;;;;;;3.10;2.90;;;14.90;99.90;;;;;;5022431;28;20124;-84
2022/07/01 03:08:50;;;;;;;3.83;2.67;;;14.90;99.90;;;;;;5030083;28;20045;-84
2022/07/01 03:11:15;;;;;;;3.88;3.47;;;14.90;99.90;;;;;;5024389;28;20092;-84
2022/07/01 03:13:41;;;;;;;4.65;4.00;;;15.00;99.90;;;;;;5035115;28;20049;-81
2022/07/01 03:16:06;;;;;;;3.58;3.38;;;14.90;99.90;;;;;;5027610;28;20510;-83
2022/07/01 03:18:32;;;;;;;8.50;4.18;;;15.00;99.90;;;;;;5021954;28;20045;-84
2022/07/01 03:20:57;;;;;;;6.30;3.75;;;14.90;99.90;;;;;;5034842;28;20045;-84
2022/07/01 03:23:23;;;;;;;3.70;3.40;;;14.90;99.90;;;;;;5024936;28;20037;-84
2022/07/01 03:25:48;;;;;;;4.13;3.65;;;14.90;99.90;;;;;;5037031;28;20597;-83
2022/07/01 03:28:14;;;;;;;4.47;3.80;;;14.90;99.90;;;;;;5039506;28;20123;-83
2022/07/01 03:30:40;;;;;;;4.40;3.05;;;14.90;99.90;;;;;;5023041;28;20041;-83
2022/07/01 03:33:05;;;;;;;4.90;3.38;;;14.90;99.90;;;;;;5034859;28;20064;-84
2022/07/01 03:35:39;;;;;;;3.85;3.30;;;14.80;99.90;;;;;;5024243;28;20116;-84
2022/07/01 03:38:05;;;;;;;2.65;2.45;;;14.80;99.90;;;;;;5024232;28;20038;-84
2022/07/01 03:40:34;;;;;;;6.60;3.13;;;14.80;99.90;;;;;;5030377;28;20052;-83
2022/07/01 03:43:00;;;;;;;3.78;2.50;;;14.80;99.90;;;;;;5020115;28;20042;-83
2022/07/01 03:45:26;;;;;;;6.38;2.95;;;14.70;99.90;;;;;;5024943;28;20079;-84
2022/07/01 03:47:51;;;;;;;3.40;3.10;;;14.70;99.90;;;;;;5029494;28;20041;-84
2022/07/01 03:50:20;;;;;;;4.07;3.00;;;14.80;99.90;;;;;;5021507;28;20498;-83
2022/07/01 03:52:45;;;;;;;3.58;2.80;;;14.80;99.90;;;;;;5021004;28;20091;-85
2022/07/01 03:55:12;;;;;;;2.67;2.38;;;14.70;99.90;;;;;;5030516;28;20454;-84
2022/07/01 03:57:38;;;;;;;3.03;2.45;;;14.70;99.90;;;;;;5022750;28;20045;-84
2022/07/01 04:00:06;;;;;;;3.05;2.53;;;14.70;99.90;;;;;;5022234;28;20041;-83
2022/07/01 04:02:31;;;;;;;4.35;2.55;;;14.70;99.90;;;;;;5032061;28;20033;-84
2022/07/01 04:04:57;;;;;;;3.25;2.45;;;14.70;99.90;;;;;;5019401;28;20052;-84
2022/07/01 04:07:23;;;;;;;2.53;2.33;;;14.60;99.90;;;;;;5020841;28;20037;-84
2022/07/01 04:09:48;;;;;;;3.85;2.60;;;14.70;99.90;;;;;;5019830;28;20435;-84
2022/07/01 04:12:14;;;;;;;2.95;2.45;;;14.70;99.90;;;;;;5020150;28;20558;-84
2022/07/01 04:14:40;;;;;;;3.05;2.22;;;14.70;99.90;;;;;;5019347;28;20037;-84
2022/07/01 04:17:07;;;;;;;3.20;2.33;;;14.70;99.90;;;;;;5027098;28;20056;-84
2022/07/01 04:19:32;;;;;;;2.58;2.38;;;14.70;99.90;;;;;;5038912;28;20048;-83
2022/07/01 04:24:42;;;;;;;3.60;2.25;;;14.70;99.90;;;;;;5032653;28;20056;-83
2022/07/01 04:27:07;;;;;;;4.97;2.17;;;14.60;99.90;;;;;;5020297;28;20049;-84
2022/07/01 04:29:33;;;;;;;3.75;2.03;;;14.60;99.90;;;;;;5020091;28;20451;-83
2022/07/01 04:31:58;;;;;;;2.03;1.63;;;14.60;99.90;;;;;;5020313;28;20037;-83
2022/07/01 04:34:25;;;;;;;4.38;1.38;;;14.60;99.90;;;;;;5030885;28;20558;-83
2022/07/01 04:36:51;;;;;;;1.48;1.38;;;14.60;99.90;;;;;;5040092;28;20041;-84
2022/07/01 04:39:16;;;;;;;2.08;1.20;;;14.60;99.90;;;;;;5037587;28;20077;-83
2022/07/01 04:42:00;;;;;;;1.92;0.90;;;14.60;99.90;;;;;;5021257;28;20065;-84
2022/07/01 04:44:36;;;;;;;3.05;1.63;;;14.60;99.90;;;;;;5035236;28;20053;-84
2022/07/01 04:47:03;;;;;;;1.48;1.23;;;14.60;99.90;;;;;;5036610;28;20045;-84
2022/07/01 04:49:29;;;;;;;2.08;1.20;;;14.50;99.90;;;;;;5024760;28;20045;-83
2022/07/01 04:51:56;;;;;;;2.92;1.98;;;14.60;99.90;;;;;;5030597;28;20052;-84
2022/07/01 04:54:22;;;;;;;1.95;1.20;;;14.50;99.90;;;;;;5030382;28;20042;-84
2022/07/01 04:56:48;;;;;;;2.17;1.83;;;14.60;99.90;;;;;;5023634;28;20076;-85
2022/07/01 04:59:14;;;;;;;4.22;2.05;;;14.50;99.90;;;;;;5023778;28;20044;-84
2022/07/01 05:01:42;;;;;;;1.88;1.58;;;14.60;99.90;;;;;;5032647;28;20044;-85
2022/07/01 05:04:07;;;;;;;2.13;1.25;;;14.50;99.90;;;;;;5051299;28;20052;-85
2022/07/01 05:06:33;;;;;;;1.35;1.15;;;14.60;99.90;;;;;;5022282;28;20462;-85
2022/07/01 05:09:00;;;;;;;4.13;2.03;;;14.60;99.90;;;;;;5024132;28;20045;-85
2022/07/01 05:11:25;;;;;;;6.93;2.00;;;14.50;99.90;;;;;;5023666;28;20072;-85
2022/07/01 05:13:51;;;;;;;2.10;1.70;;;14.60;99.90;;;;;;5022616;28;20038;-85
2022/07/01 05:16:17;;;;;;;2.05;1.25;;;14.60;99.90;;;;;;5023975;28;20037;-84
2022/07/01 05:24:12;;;;;;;3.58;1.92;;;14.70;99.90;;;;;;5020277;28;20037;-84
2022/07/01 05:26:38;;;;;;;2.05;1.85;;;14.70;99.90;;;;;;5023545;28;20411;-84
2022/07/01 05:29:04;;;;;;;3.53;1.73;;;14.80;99.90;;;;;;5054034;28;20060;-84
2022/07/01 05:31:30;;;;;;;2.50;2.00;;;14.80;99.90;;;;;;5022850;28;20038;-84
2022/07/01 05:33:55;;;;;;;5.22;2.97;;;14.80;99.90;;;;;;5022873;28;20052;-84
2022/07/01 05:36:21;;;;;;;2.25;2.15;;;14.90;99.90;;;;;;5023613;28;20143;-84
2022/07/01 05:38:46;;;;;;;3.53;2.55;;;14.90;99.90;;;;;;5012361;28;20781;-84
2022/07/01 05:41:13;;;;;;;8.02;2.95;;;14.90;99.90;;;;;;5023490;28;20402;-84
2022/07/01 05:43:38;;;;;;;8.43;2.72;;;15.00;99.90;;;;;;5027952;28;20132;-84
2022/07/01 05:46:04;;;;;;;4.70;3.03;;;14.90;99.90;;;;;;5033067;28;20061;-83
2022/07/01 05:48:30;;;;;;;4.82;4.32;;;15.00;99.90;;;;;;5027804;28;20041;-85
2022/07/01 05:50:55;;;;;;;5.97;4.40;;;15.00;99.90;;;;;;5023840;28;20037;-85
2022/07/01 05:53:22;;;;;;;7.15;5.88;;;15.00;99.90;;;;;;5028465;28;20064;-88
2022/07/01 05:55:48;;;;;;;9.75;6.72;;;15.00;99.90;;;;;;5023782;28;20037;-82
2022/07/01 05:58:14;;;;;;;7.68;5.35;;;15.10;99.90;;;;;;5020139;28;20092;-88
2022/07/01 06:00:41;;;;;;;12.13;6.60;;;15.00;99.90;;;;;;5026635;28;20116;-91
2022/07/01 06:03:11;;;;;;;8.90;6.10;;;15.10;99.90;;;;;;5012887;28;20056;-87
2022/07/01 06:05:37;;;;;;;9.63;6.80;;;15.10;99.90;;;;;;5024856;28;20555;-90
2022/07/01 06:08:04;;;;;;;6.85;6.03;;;15.20;99.90;;;;;;5023143;28;20033;-88
2022/07/01 06:10:29;;;;;;;9.77;7.22;;;15.20;99.90;;;;;;5022393;28;20059;-85
2022/07/01 06:12:55;;;;;;;10.02;7.32;;;15.20;99.90;;;;;;5022056;28;20124;-85
2022/07/01 06:15:21;;;;;;;13.27;7.15;;;15.20;99.90;;;;;;5023235;28;20088;-85
2022/07/01 06:17:47;;;;;;;8.60;7.00;;;15.20;99.90;;;;;;5022724;28;20487;-84
2022/07/01 06:20:12;;;;;;;7.50;6.80;;;15.20;99.90;;;;;;5022845;28;20050;-85
2022/07/01 06:22:38;;;;;;;9.13;7.20;;;15.30;99.90;;;;;;5023136;28;20506;-85
2022/07/01 06:25:04;;;;;;;8.45;6.78;;;15.30;99.90;;;;;;5022926;28;20053;-85
2022/07/01 06:27:30;;;;;;;7.13;6.43;;;15.30;99.90;;;;;;5021747;28;20042;-83
2022/07/01 06:29:55;;;;;;;9.57;5.82;;;15.30;99.90;;;;;;5021723;28;20075;-85
2022/07/01 06:32:21;;;;;;;7.97;6.40;;;15.30;99.90;;;;;;5022890;28;20049;-84
2022/07/01 06:34:48;;;;;;;14.30;6.93;;;15.30;99.90;;;;;;5021701;28;20183;-84
2022/07/01 06:37:14;;;;;;;9.45;6.70;;;15.30;99.90;;;;;;5022873;28;20063;-85
2022/07/01 06:39:39;;;;;;;7.53;5.90;;;15.30;99.90;;;;;;5022598;28;20128;-85
2022/07/01 06:42:05;;;;;;;9.77;5.70;;;15.30;99.90;;;;;;5004794;28;20087;-84
2022/07/01 06:44:31;;;;;;;10.35;7.15;;;15.30;99.90;;;;;;5021860;28;20396;-85
2022/07/01 06:46:57;;;;;;;7.40;6.28;;;15.40;99.90;;;;;;5022291;28;20045;-85
2022/07/01 06:49:22;;;;;;;7.78;5.18;;;15.40;99.90;;;;;;5022268;28;20411;-85
2022/07/01 06:51:48;;;;;;;5.28;4.50;;;15.40;99.90;;;;;;5021795;28;20046;-85
2022/07/01 06:54:13;;;;;;;7.60;5.47;;;15.40;99.90;;;;;;5022315;28;20895;-85
2022/07/01 06:56:39;;;;;;;4.38;3.97;;;15.50;99.90;;;;;;5022630;28;20073;-87
2022/07/01 06:59:04;;;;;;;7.10;5.05;;;15.40;99.90;;;;;;5020979;28;20510;-85
2022/07/01 07:01:30;;;;;;;6.18;4.75;;;15.50;99.90;;;;;;5021352;28;20041;-86
2022/07/01 07:03:56;;;;;;;4.20;3.58;;;15.50;99.90;;;;;;5001965;28;20442;-87
2022/07/01 07:06:22;;;;;;;6.22;3.92;;;15.50;99.90;;;;;;5020624;28;20543;-86
2022/07/01 07:08:48;;;;;;;8.45;3.70;;;15.50;99.90;;;;;;5021645;28;20092;-86
2022/07/01 07:11:14;;;;;;;3.92;3.60;;;15.60;99.90;;;;;;5021591;28;20648;-87
2022/07/01 07:13:41;;;;;;;4.80;4.13;;;15.70;99.90;;;;;;5021344;28;20080;-87
2022/07/01 07:16:07;;;;;;;4.60;3.55;;;15.70;99.90;;;;;;5021764;28;20033;-86
2022/07/01 07:18:32;;;;;;;5.93;2.80;;;15.70;99.90;;;;;;5021701;28;20052;-87
2022/07/01 07:20:58;;;;;;;9.85;3.53;;;15.70;99.90;;;;;;5021464;28;20037;-84
2022/07/01 07:23:24;;;;;;;4.78;3.13;;;15.80;99.90;;;;;;5021413;28;20049;-85
2022/07/01 07:25:49;;;;;;;3.22;2.88;;;15.90;99.90;;;;;;5020406;28;20041;-85
2022/07/01 07:28:15;;;;;;;3.20;2.42;;;15.90;99.90;;;;;;5018757;28;20116;-84
2022/07/01 07:30:40;;;;;;;15.48;3.25;;;15.90;99.90;;;;;;5020401;28;20092;-84
2022/07/01 07:33:06;;;;;;;4.15;2.33;;;16.00;99.90;;;;;;5018575;28;20064;-85
2022/07/01 07:35:31;;;;;;;11.65;2.30;;;16.00;99.90;;;;;;5020713;28;20029;-85
2022/07/01 07:37:57;;;;;;;4.93;2.17;;;16.10;99.90;;;;;;5019194;28;20096;-85
2022/07/01 07:40:24;;;;;;;6.35;2.33;;;16.20;99.90;;;;;;5018487;28;20140;-84
2022/07/01 07:42:49;;;;;;;3.45;2.10;;;16.20;99.90;;;;;;5018919;28;20366;-85
2022/07/01 07:45:15;;;;;;;2.95;1.55;;;16.20;99.90;;;;;;5019609;28;20389;-85
2022/07/01 07:47:43;;;;;;;2.17;1.98;;;16.30;99.90;;;;;;5019274;28;20403;-85
2022/07/01 07:50:10;;;;;;;3.65;2.10;;;16.30;99.90;;;;;;5019112;28;20072;-84
2022/07/01 07:52:36;;;;;;;1.77;1.67;;;16.40;99.90;;;;;;5019922;28;20400;-85
2022/07/01 07:55:02;;;;;;;4.57;1.55;;;16.40;99.90;;;;;;5019634;28;20045;-85
2022/07/01 07:57:27;;;;;;;4.22;1.98;;;16.50;99.90;;;;;;5017805;28;20065;-85
2022/07/01 07:59:53;;;;;;;4.40;1.70;;;16.50;99.90;;;;;;5019590;28;20084;-85
2022/07/01 08:02:19;;;;;;;1.48;1.38;;;16.60;99.90;;;;;;5019358;28;20111;-85
2022/07/01 08:04:44;;;;;;;3.40;1.30;;;16.60;99.90;;;;;;5018758;28;20041;-85
2022/07/01 08:07:10;;;;;;;2.78;1.35;;;16.70;99.90;;;;;;5019961;28;20037;-84
2022/07/01 08:09:36;;;;;;;8.60;2.15;;;16.70;99.90;;;;;;5018077;28;20046;-85
2022/07/01 08:12:02;;;;;;;3.38;1.85;;;16.80;99.90;;;;;;5017654;28;20049;-85
2022/07/01 08:14:28;;;;;;;2.83;1.75;;;16.90;99.90;;;;;;5019543;28;20191;-85
2022/07/01 08:16:53;;;;;;;3.08;1.27;;;16.80;99.90;;;;;;5019103;28;20523;-86
2022/07/01 08:19:19;;;;;;;1.55;1.35;;;16.90;99.90;;;;;;5019049;28;20045;-85
2022/07/01 08:21:45;;;;;;;1.23;1.08;;;16.80;99.90;;;;;;5018976;28;20550;-86
2022/07/01 08:24:10;;;;;;;1.60;1.50;;;16.90;99.90;;;;;;5018223;28;20084;-86
2022/07/01 08:26:36;;;;;;;1.25;1.00;;;16.90;99.90;;;;;;5019136;28;20731;-86
2022/07/01 08:29:02;;;;;;;3.05;1.90;;;16.90;99.90;;;;;;5017930;28;20056;-86
2022/07/01 08:31:27;;;;;;;3.05;1.63;;;16.90;99.90;;;;;;5019739;28;20041;-86
2022/07/01 08:33:53;;;;;;;1.23;1.13;;;16.90;99.90;;;;;;5019977;28;20484;-86
2022/07/01 08:36:18;;;;;;;1.98;1.20;;;16.90;99.90;;;;;;5018710;28;20037;-86
2022/07/01 08:38:44;;;;;;;0.90;0.90;;;17.00;99.90;;;;;;5019225;28;20049;-81
2022/07/01 08:41:09;;;;;;;2.58;1.25;;;17.00;99.90;;;;;;5019826;28;20519;-86
2022/07/01 08:43:35;;;;;;;1.48;1.38;;;17.10;99.90;;;;;;5019191;28;20072;-87
2022/07/01 08:46:02;;;;;;;5.47;2.05;;;17.20;99.90;;;;;;5019617;28;20069;-87
2022/07/01 08:48:29;;;;;;;1.55;1.45;;;17.20;99.90;;;;;;5020404;28;20033;-87
2022/07/01 08:50:54;;;;;;;2.22;1.63;;;17.20;99.90;;;;;;5019351;28;20496;-87
2022/07/01 08:53:20;;;;;;;0.73;0.73;;;17.30;99.90;;;;;;5018475;28;20076;-88
2022/07/01 08:58:31;;;;;;;0.60;0.57;;;17.30;99.90;;;;;;5015824;28;20060;-85
2022/07/01 09:01:26;;;;;;;1.30;1.05;;;17.30;99.90;;;;;;5018648;28;20145;-87
2022/07/01 09:03:54;;;;;;;1.17;1.08;;;17.30;99.90;;;;;;5018875;28;20129;-86
2022/07/01 09:06:30;;;;;;;1.48;1.10;;;17.30;99.90;;;;;;5020739;28;20045;-86
2022/07/01 09:09:14;;;;;;;2.65;0.70;;;17.30;99.90;;;;;;5017961;28;20061;-90
2022/07/01 09:11:46;;;;;;;1.25;0.90;;;17.20;99.90;;;;;;5050387;28;20053;-85
2022/07/01 09:14:16;;;;;;;1.30;0.95;;;17.20;99.90;;;;;;5016615;28;20611;-86
2022/07/01 09:16:46;;;;;;;2.75;1.05;;;17.30;99.90;;;;;;5018321;28;20703;-86
2022/07/01 09:19:13;;;;;;;5.80;0.80;;;17.20;99.90;;;;;;5016334;28;20095;-86
2022/07/01 09:21:40;;;;;;;1.42;1.33;;;17.30;99.90;;;;;;5018203;28;20049;-85
2022/07/01 09:24:27;;;;;;;0.90;0.75;;;17.30;99.90;;;;;;5016491;28;20029;-87
2022/07/01 09:27:10;;;;;;;2.53;0.82;;;17.40;99.90;;;;;;5049066;28;20663;-86
2022/07/01 09:29:42;;;;;;;0.90;0.85;;;17.50;99.90;;;;;;5018195;28;20480;-87
2022/07/01 09:32:10;;;;;;;0.75;0.75;;;17.60;99.90;;;;;;5021590;28;20316;-84
2022/07/01 09:34:44;;;;;;;1.63;0.98;;;17.60;99.90;;;;;;5020769;28;20037;-87
2022/07/01 09:37:14;;;;;;;1.23;0.50;;;17.60;99.90;;;;;;5021110;28;20067;-86
2022/07/01 09:39:43;;;;;;;5.05;1.05;;;17.50;99.90;;;;;;5017711;28;20099;-87
2022/07/01 09:42:09;;;;;;;3.70;0.98;;;17.50;99.90;;;;;;5021055;28;20055;-87
2022/07/01 09:44:35;;;;;;;3.60;1.00;;;17.50;99.90;;;;;;5023164;28;20116;-86
2022/07/01 09:47:01;;;;;;;0.60;0.60;;;17.50;99.90;;;;;;5022434;28;20322;-86
2022/07/01 09:49:27;;;;;;;1.45;1.08;;;17.50;99.90;;;;;;5021530;28;20037;-86
2022/07/01 09:51:53;;;;;;;0.50;0.50;;;17.40;99.90;;;;;;5022397;28;20432;-86
2022/07/01 09:54:19;;;;;;;0.73;0.73;;;17.40;99.90;;;;;;5020428;28;20029;-85
2022/07/01 09:56:45;;;;;;;2.33;1.15;;;17.40;99.90;;;;;;5020346;28;20041;-85
2022/07/01 09:59:11;;;;;;;1.17;0.93;;;17.40;99.90;;;;;;5051080;28;20044;-85
2022/07/01 10:01:38;;;;;;;2.05;1.15;;;17.40;99.90;;;;;;5019282;28;20080;-87
2022/07/01 10:04:07;;;;;;;2.60;0.98;;;17.40;99.90;;;;;;5021376;28;20152;-85
2022/07/01 10:06:57;;;;;;;1.05;0.95;;;17.40;99.90;;;;;;5022546;28;20452;-86
2022/07/01 10:09:25;;;;;;;2.05;0.73;;;17.40;99.90;;;;;;5023401;28;20053;-85
2022/07/01 10:12:22;;;;;;;1.67;1.13;;;17.40;99.90;;;;;;5020688;28;20132;-85
2022/07/01 10:14:48;;;;;;;0.77;0.75;;;17.40;99.90;;;;;;5019180;28;20447;-86
2022/07/01 10:17:48;;;;;;;2.45;1.65;;;17.50;99.90;;;;;;5020875;28;20098;-85
2022/07/01 10:20:28;;;;;;;2.30;1.35;;;17.50;99.90;;;;;;4976099;28;20057;-85
2022/07/01 10:23:06;;;;;;;4.38;1.00;;;17.60;99.90;;;;;;5019313;28;20037;-84
2022/07/01 10:25:44;;;;;;;2.28;1.38;;;17.60;99.90;;;;;;5020899;28;20037;-85
2022/07/01 10:28:17;;;;;;;2.17;1.27;;;17.70;99.90;;;;;;5018553;28;20050;-85
2022/07/01 10:31:04;;;;;;;1.00;0.75;;;17.70;99.90;;;;;;5021958;28;20068;-80
2022/07/01 10:33:51;;;;;;;1.55;1.42;;;17.70;99.90;;;;;;5022825;28;20041;-84
2022/07/01 10:36:21;;;;;;;4.75;1.17;;;17.60;99.90;;;;;;5022977;28;20155;-84
2022/07/01 10:39:06;;;;;;;1.42;1.30;;;17.70;99.90;;;;;;5019895;28;20053;-85
2022/07/01 10:41:56;;;;;;;1.90;1.80;;;17.60;99.90;;;;;;5020946;28;20041;-84
2022/07/01 10:44:23;;;;;;;1.50;1.35;;;17.60;99.90;;;;;;5052654;28;20057;-85
2022/07/01 10:47:02;;;;;;;1.38;0.98;;;17.60;99.90;;;;;;5021821;28;20368;-84
2022/07/01 10:49:37;;;;;;;0.90;0.85;;;17.60;99.90;;;;;;5025953;28;20053;-85
2022/07/01 10:52:23;;;;;;;1.17;0.60;;;17.60;99.90;;;;;;5024529;28;20399;-86
2022/07/01 10:54:55;;;;;;;2.85;1.17;;;17.70;99.90;;;;;;5020475;28;20444;-83
2022/07/01 10:57:22;;;;;;;;;;;17.60;99.90;;;;;;5020285;28;20041;-83
2022/07/01 11:00:00;;;;;;;1.60;0.85;;;17.60;99.90;;;;;;5020269;28;19931;-83
2022/07/01 11:02:29;;;;;;;0.80;0.80;;;17.60;99.90;;;;;;5020605;28;20053;-83
2022/07/01 11:05:18;;;;;;;1.00;0.90;;;17.70;99.90;;;;;;5020320;28;20049;-84
2022/07/01 11:07:46;;;;;;;1.83;1.00;;;17.70;99.90;;;;;;5019860;28;20061;-83
2022/07/01 11:10:15;;;;;;;1.85;0.65;;;17.70;99.90;;;;;;5020941;28;20507;-83
2022/07/01 11:12:41;;;;;;;1.90;0.82;;;17.80;99.90;;;;;;5020309;28;20129;-83
2022/07/01 11:15:10;;;;;;;0.90;0.85;;;17.80;99.90;;;;;;5020268;28;20118;-83
2022/07/01 11:17:42;;;;;;;1.27;1.02;;;17.90;99.90;;;;;;5020772;28;20052;-83
2022/07/01 11:20:08;;;;;;;1.27;0.95;;;17.90;99.90;;;;;;5019980;28;20060;-83
2022/07/01 11:22:34;;;;;;;2.60;0.65;;;18.00;99.90;;;;;;5020559;28;20056;-83
2022/07/01 11:25:06;;;;;;;1.30;0.93;;;18.10;99.90;;;;;;5020279;28;20045;-83
2022/07/01 11:27:33;;;;;;;1.23;1.20;;;18.10;99.90;;;;;;5018599;28;20249;-84
2022/07/01 11:30:01;;;;;;;0.80;0.80;;;18.10;99.90;;;;;;5020766;28;20052;-83
2022/07/01 11:32:31;;;;;;;1.30;1.10;;;18.10;99.90;;;;;;5020062;28;20408;-83
2022/07/01 11:34:59;;;;;;;1.75;0.98;;;18.10;99.90;;;;;;5019319;28;20487;-83
2022/07/01 11:40:18;;;;;;;1.25;0.68;;;18.10;99.90;;;;;;5018972;28;20041;-83
2022/07/01 11:42:45;;;;;;;1.23;0.80;;;18.10;99.90;;;;;;5018931;28;20049;-81
2022/07/01 11:45:24;;;;;;;0.88;0.80;;;18.10;99.90;;;;;;5020890;28;20268;-84
2022/07/01 11:47:49;;;;;;;1.05;0.88;;;18.10;99.90;;;;;;5019404;28;20108;-84
2022/07/01 11:50:15;;;;;;;2.35;1.10;;;18.10;99.90;;;;;;5019051;28;20575;-84
2022/07/01 11:52:41;;;;;;;4.20;0.90;;;18.10;99.90;;;;;;5019636;28;20038;-83
2022/07/01 11:55:07;;;;;;;0.70;0.70;;;18.10;99.90;;;;;;5019132;28;20038;-83
2022/07/01 11:57:34;;;;;;;0.45;0.45;;;18.20;99.90;;;;;;5019026;28;20052;-83
2022/07/01 12:00:09;;;;;;;1.08;0.45;;;18.20;99.90;;;;;;5019635;28;20052;-83
2022/07/01 12:02:35;;;;;;;1.65;0.73;;;18.30;99.90;;;;;;5020218;28;20408;-83
2022/07/01 12:05:02;;;;;;;2.45;0.73;;;18.30;99.90;;;;;;5001367;28;20041;-84
2022/07/01 12:07:28;;;;;;;0.40;0.40;;;18.40;99.90;;;;;;5019288;28;20045;-83
2022/07/01 12:09:53;;;;;;;0.70;0.70;;;18.40;99.90;;;;;;5017550;28;20053;-84
2022/07/01 12:12:26;;;;;;;1.30;0.90;;;18.40;99.90;;;;;;5018573;28;20524;-84
2022/07/01 12:14:54;;;;;;;0.63;0.50;;;18.40;99.90;;;;;;5019143;28;20080;-84
2022/07/01 12:17:21;;;;;;;1.25;0.77;;;18.50;99.90;;;;;;5019608;28;20077;-84
2022/07/01 12:19:48;;;;;;;1.95;0.85;;;18.40;99.90;;;;;;5019072;28;20038;-85
2022/07/01 12:22:19;;;;;;;3.47;0.60;;;18.40;99.90;;;;;;5017919;28;20048;-81
2022/07/01 12:24:45;;;;;;;0.40;0.40;;;18.50;99.90;;;;;;5019108;28;20042;-83
2022/07/01 12:27:11;;;;;;;0.80;0.75;;;18.50;99.90;;;;;;5018915;28;20116;-84
2022/07/01 12:29:39;;;;;;;1.25;0.95;;;18.60;99.90;;;;;;5019303;28;20128;-84
2022/07/01 12:32:06;;;;;;;0.90;0.73;;;18.60;99.90;;;;;;5018037;28;20053;-84
2022/07/01 12:34:42;;;;;;;4.78;0.98;;;18.70;99.90;;;;;;5019653;28;20127;-83
2022/07/01 12:37:16;;;;;;;1.00;0.70;;;18.60;99.90;;;;;;5019367;28;20049;-83
2022/07/01 12:39:52;;;;;;;2.30;1.02;;;18.60;99.90;;;;;;5020311;28;20057;-83
2022/07/01 12:42:38;;;;;;;0.68;0.68;;;18.70;99.90;;;;;;5018140;28;20045;-83
2022/07/01 12:45:08;;;;;;;0.60;0.60;;;18.70;99.90;;;;;;5018946;28;20122;-83
2022/07/01 12:47:37;;;;;;;2.22;0.80;;;18.70;99.90;;;;;;5019242;28;20205;-84
2022/07/01 12:50:14;;;;;;;4.30;0.70;;;18.80;99.90;;;;;;5018996;28;20033;-84
2022/07/01 12:52:57;;;;;;;1.95;1.13;;;18.80;99.90;;;;;;5018363;28;20099;-84
2022/07/01 12:55:23;;;;;;;2.63;1.00;;;18.80;99.90;;;;;;5017890;28;20038;-83
2022/07/01 12:57:54;;;;;;;0.77;0.77;;;18.70;99.90;;;;;;5016713;28;20048;-83
2022/07/01 13:00:21;;;;;;;0.63;0.43;;;18.70;99.90;;;;;;5019195;28;20207;-83
2022/07/01 13:02:50;;;;;;;1.88;0.90;;;18.80;99.90;;;;;;5017776;28;20049;-83
2022/07/01 13:05:16;;;;;;;2.47;0.75;;;18.80;99.90;;;;;;5020854;28;20337;-84
2022/07/01 13:07:41;;;;;;;2.17;0.93;;;18.80;99.90;;;;;;5023034;28;20189;-83